createdAt,value
2018-03-04T00:00:48.105Z,100.50
2018-03-04T00:03:15.629Z,104.87
2018-03-04T00:05:43.946Z,111.47
2018-03-04T00:08:11.473Z,107.47
2018-03-04T00:10:39.784Z,99.90
2018-03-04T00:13:07.310Z,98.10
2018-03-04T00:15:35.626Z,111.85
2018-03-04T00:18:03.152Z,96.10
2018-03-04T00:20:31.465Z,101.57
2018-03-04T00:22:59.003Z,107.72
2018-03-04T00:25:26.561Z,98.18
2018-03-04T00:27:54.092Z,90.22
2018-03-04T00:30:21.639Z,97.97
2018-03-04T00:32:49.167Z,106.47
2018-03-04T00:35:16.715Z,107.35
2018-03-04T00:37:44.242Z,102.95
2018-03-04T00:40:12.565Z,90.90
2018-03-04T00:42:40.103Z,105.80
2018-03-04T00:45:07.654Z,99.95
2018-03-04T00:47:35.948Z,107.43
2018-03-04T00:50:03.516Z,112.10
2018-03-04T00:52:31.103Z,110.03
2018-03-04T00:54:58.668Z,89.18
2018-03-04T00:57:26.198Z,93.47
2018-03-04T00:59:53.727Z,105.47
2018-03-04T01:02:21.271Z,104.05
2018-03-04T01:04:48.797Z,112.75
2018-03-04T01:07:16.347Z,86.05
2018-03-04T01:09:43.879Z,105.30
2018-03-04T01:12:12.207Z,100.65
2018-03-04T01:14:39.765Z,97.25
2018-03-04T01:17:07.308Z,106.50
2018-03-04T01:19:34.825Z,94.90
2018-03-04T01:22:02.451Z,94.15
2018-03-04T01:24:30.018Z,89.65
2018-03-04T01:26:57.562Z,87.25
2018-03-04T01:29:25.092Z,100.93
2018-03-04T01:31:53.409Z,94.03
2018-03-04T01:34:20.934Z,95.45
2018-03-04T01:36:49.358Z,104.00
2018-03-04T01:39:16.895Z,110.32
2018-03-04T01:41:44.442Z,99.32
2018-03-04T01:44:12.734Z,101.22
2018-03-04T01:46:40.282Z,90.40
2018-03-04T01:49:08.578Z,99.03
2018-03-04T01:51:48.002Z,97.22
2018-03-04T01:54:16.365Z,88.35
2018-03-04T01:56:43.978Z,97.32
2018-03-04T01:59:11.505Z,98.87
2018-03-04T02:01:39.810Z,102.07
2018-03-04T02:04:07.340Z,97.15
2018-03-04T02:06:35.647Z,105.03
2018-03-04T02:09:03.178Z,99.50
2018-03-04T02:11:31.502Z,99.82
2018-03-04T02:13:59.026Z,95.90
2018-03-04T02:16:27.337Z,106.05
2018-03-04T02:18:54.863Z,106.30
2018-03-04T02:21:23.175Z,96.12
2018-03-04T02:23:50.702Z,106.70
2018-03-04T02:26:18.250Z,102.57
2018-03-04T02:28:45.868Z,92.12
2018-03-04T02:31:13.390Z,107.53
2018-03-04T02:33:41.714Z,99.37
2018-03-04T02:36:09.237Z,103.60
2018-03-04T02:38:37.590Z,95.87
2018-03-04T02:41:05.093Z,95.55
2018-03-04T02:43:32.654Z,100.80
2018-03-04T02:46:00.239Z,104.05
2018-03-04T02:48:27.795Z,120.35
2018-03-04T02:50:55.328Z,109.85
2018-03-04T02:53:22.915Z,104.87
2018-03-04T02:55:50.450Z,121.65
2018-03-04T02:58:18.756Z,91.07
2018-03-04T03:00:46.283Z,115.97
2018-03-04T03:03:14.598Z,109.72
2018-03-04T03:05:42.164Z,116.07
2018-03-04T03:08:09.721Z,144.40
2018-03-04T03:10:37.246Z,111.10
2018-03-04T03:13:05.558Z,111.28
2018-03-04T03:15:33.082Z,115.78
2018-03-04T03:18:01.390Z,116.37
2018-03-04T03:20:28.921Z,110.30
2018-03-04T03:22:57.225Z,125.43
2018-03-04T03:25:24.750Z,114.07
2018-03-04T03:27:52.293Z,115.20
2018-03-04T03:30:19.824Z,109.25
2018-03-04T03:32:47.387Z,115.78
2018-03-04T03:35:14.906Z,109.10
2018-03-04T03:37:43.211Z,111.68
2018-03-04T03:40:10.787Z,128.85
2018-03-04T03:42:38.319Z,122.97
2018-03-04T03:45:05.866Z,107.20
2018-03-04T03:47:34.182Z,112.00
2018-03-04T03:50:01.742Z,110.47
2018-03-04T03:52:29.268Z,101.15
2018-03-04T03:54:57.582Z,110.05
2018-03-04T03:57:25.119Z,109.85
2018-03-04T03:59:52.691Z,110.37
2018-03-04T04:02:20.215Z,122.75
2018-03-04T04:04:48.532Z,110.85
2018-03-04T04:07:16.055Z,114.30
2018-03-04T04:09:43.614Z,113.15
2018-03-04T04:12:11.144Z,105.00
2018-03-04T04:14:38.802Z,117.03
2018-03-04T04:17:06.350Z,112.03
2018-03-04T04:19:36.470Z,111.18
2018-03-04T04:22:04.034Z,106.53
2018-03-04T04:24:31.597Z,110.93
2018-03-04T04:26:59.159Z,106.97
2018-03-04T04:29:26.698Z,112.10
2018-03-04T04:31:54.253Z,115.00
2018-03-04T04:34:21.785Z,101.40
2018-03-04T04:36:50.108Z,105.35
2018-03-04T04:39:17.628Z,97.70
2018-03-04T04:41:45.188Z,97.70
2018-03-04T04:44:13.346Z,102.22
2018-03-04T04:46:40.893Z,123.47
2018-03-04T04:49:08.416Z,104.15
2018-03-04T04:51:35.972Z,119.00
2018-03-04T04:54:05.301Z,93.32
2018-03-04T04:56:32.868Z,104.97
2018-03-04T04:59:00.394Z,110.07
2018-03-04T05:01:28.724Z,109.97
2018-03-04T05:03:56.249Z,99.80
2018-03-04T05:06:23.777Z,115.97
2018-03-04T05:08:51.331Z,115.60
2018-03-04T05:11:18.961Z,100.50
2018-03-04T05:13:46.515Z,94.13
2018-03-04T05:16:14.043Z,102.10
2018-03-04T05:18:42.362Z,104.85
2018-03-04T05:21:09.890Z,111.50
2018-03-04T05:23:37.438Z,113.30
2018-03-04T05:26:05.733Z,107.35
2018-03-04T05:28:33.279Z,113.90
2018-03-04T05:31:01.578Z,115.05
2018-03-04T05:33:29.122Z,95.47
2018-03-04T05:35:57.413Z,109.60
2018-03-04T05:38:24.959Z,110.37
2018-03-04T05:40:53.261Z,116.88
2018-03-04T05:43:20.809Z,116.62
2018-03-04T05:45:49.102Z,112.43
2018-03-04T05:48:16.650Z,117.00
2018-03-04T05:50:44.183Z,115.03
2018-03-04T05:53:12.667Z,109.55
2018-03-04T05:55:40.195Z,112.85
2018-03-04T05:58:07.723Z,115.47
2018-03-04T06:00:35.270Z,100.10
2018-03-04T06:03:03.553Z,114.62
2018-03-04T06:05:31.870Z,120.95
2018-03-04T06:07:59.399Z,106.22
2018-03-04T06:10:26.943Z,106.12
2018-03-04T06:12:55.234Z,102.72
2018-03-04T06:15:22.821Z,109.00
2018-03-04T06:17:50.346Z,112.25
2018-03-04T06:20:18.654Z,91.78
2018-03-04T06:22:46.179Z,104.75
2018-03-04T06:25:14.485Z,95.87
2018-03-04T06:27:42.014Z,113.57
2018-03-04T06:30:09.563Z,104.95
2018-03-04T06:32:37.082Z,98.85
2018-03-04T06:35:04.638Z,112.47
2018-03-04T06:37:32.211Z,116.57
2018-03-04T06:39:59.870Z,114.22
2018-03-04T06:42:27.403Z,124.45
2018-03-04T06:44:54.951Z,114.72
2018-03-04T06:47:23.245Z,108.25
2018-03-04T06:49:50.791Z,97.18
2018-03-04T06:52:19.089Z,109.18
2018-03-04T06:54:46.609Z,104.82
2018-03-04T06:57:14.157Z,114.80
2018-03-04T06:59:41.684Z,102.18
2018-03-04T07:02:09.522Z,109.90
2018-03-04T07:04:37.814Z,109.68
2018-03-04T07:07:05.365Z,110.85
2018-03-04T07:09:32.897Z,114.65
2018-03-04T07:12:00.445Z,112.78
2018-03-04T07:14:27.972Z,110.15
2018-03-04T07:16:55.522Z,104.87
2018-03-04T07:19:23.046Z,109.82
2018-03-04T07:21:50.664Z,116.22
2018-03-04T07:24:18.194Z,103.78
2018-03-04T07:26:45.741Z,112.35
2018-03-04T07:29:14.042Z,100.62
2018-03-04T07:31:41.562Z,98.22
2018-03-04T07:34:09.114Z,108.07
2018-03-04T07:36:36.743Z,97.22
2018-03-04T07:39:04.296Z,113.03
2018-03-04T07:41:31.869Z,106.12
2018-03-04T07:43:59.418Z,112.03
2018-03-04T07:46:26.986Z,106.53
2018-03-04T07:48:54.550Z,110.55
2018-03-04T07:51:22.087Z,113.57
2018-03-04T07:53:49.669Z,100.40
2018-03-04T07:56:17.248Z,114.25
2018-03-04T07:58:44.765Z,108.87
2018-03-04T08:01:13.071Z,102.15
2018-03-04T08:03:40.614Z,107.65
2018-03-04T08:06:08.147Z,123.78
2018-03-04T08:08:35.697Z,101.62
2018-03-04T08:11:03.221Z,109.45
2018-03-04T08:13:30.878Z,113.32
2018-03-04T08:15:58.407Z,96.22
2018-03-04T08:18:26.694Z,98.18
2018-03-04T08:20:54.277Z,100.05
2018-03-04T08:23:21.802Z,111.18
2018-03-04T08:25:50.109Z,102.95
2018-03-04T08:28:29.569Z,106.82
2018-03-04T08:30:57.118Z,125.18
2018-03-04T08:33:24.686Z,106.03
2018-03-04T08:35:52.254Z,100.72
2018-03-04T08:38:19.781Z,106.90
2018-03-04T08:40:48.094Z,113.20
2018-03-04T08:43:15.647Z,115.88
2018-03-04T08:45:43.201Z,118.07
2018-03-04T08:48:10.721Z,105.03
2018-03-04T08:50:39.030Z,109.55
2018-03-04T08:53:06.710Z,105.28
2018-03-04T08:55:34.231Z,112.05
2018-03-04T08:58:02.534Z,126.28
2018-03-04T09:00:30.118Z,110.63
2018-03-04T09:02:57.658Z,117.57
2018-03-04T09:05:25.185Z,105.78
2018-03-04T09:07:52.731Z,115.72
2018-03-04T09:10:20.256Z,104.22
2018-03-04T09:12:50.312Z,117.32
2018-03-04T09:15:17.833Z,107.03
2018-03-04T09:17:45.368Z,106.35
2018-03-04T09:20:13.658Z,125.53
2018-03-04T09:22:41.206Z,115.35
2018-03-04T09:25:09.508Z,116.50
2018-03-04T09:27:37.098Z,114.25
2018-03-04T09:30:04.703Z,115.93
2018-03-04T09:32:32.182Z,109.95
2018-03-04T09:34:59.773Z,120.53
2018-03-04T09:37:27.314Z,123.53
2018-03-04T09:39:54.833Z,124.97
2018-03-04T09:42:23.167Z,119.65
2018-03-04T09:44:50.693Z,116.28
2018-03-04T09:47:18.982Z,117.43
2018-03-04T09:49:47.286Z,107.78
2018-03-04T09:52:14.812Z,99.25
2018-03-04T09:54:43.118Z,108.30
2018-03-04T09:57:10.650Z,120.75
2018-03-04T09:59:38.960Z,118.47
2018-03-04T10:02:06.530Z,128.57
2018-03-04T10:04:34.048Z,108.22
2018-03-04T10:07:02.369Z,106.20
2018-03-04T10:09:29.920Z,107.60
2018-03-04T10:11:57.443Z,121.80
2018-03-04T10:14:25.769Z,108.07
2018-03-04T10:16:53.294Z,111.45
2018-03-04T10:19:21.602Z,126.40
2018-03-04T10:21:49.126Z,115.07
2018-03-04T10:24:17.436Z,104.00
2018-03-04T10:26:44.963Z,115.55
2018-03-04T10:29:13.285Z,117.30
2018-03-04T10:31:40.814Z,127.35
2018-03-04T10:34:08.339Z,109.68
2018-03-04T10:36:35.890Z,111.15
2018-03-04T10:39:03.420Z,124.35
2018-03-04T10:41:30.968Z,105.72
2018-03-04T10:43:58.850Z,120.25
2018-03-04T10:46:26.423Z,119.60
2018-03-04T10:48:53.945Z,107.65
2018-03-04T10:51:22.250Z,112.70
2018-03-04T10:53:50.003Z,100.75
2018-03-04T10:56:17.574Z,119.68
2018-03-04T10:58:45.103Z,115.07
2018-03-04T11:01:18.373Z,119.07
2018-03-04T11:03:45.897Z,118.47
2018-03-04T11:06:13.440Z,118.37
2018-03-04T11:08:40.972Z,116.65
2018-03-04T11:11:09.283Z,102.78
2018-03-04T11:13:36.811Z,106.68
2018-03-04T11:16:05.135Z,141.80
2018-03-04T11:18:34.385Z,121.97
2018-03-04T11:21:01.946Z,112.18
2018-03-04T11:23:29.472Z,109.43
2018-03-04T11:25:56.998Z,106.95
2018-03-04T11:28:24.549Z,116.97
2018-03-04T11:30:52.092Z,119.62
2018-03-04T11:33:19.638Z,118.78
2018-03-04T11:35:47.172Z,103.95
2018-03-04T11:38:14.720Z,106.95
2018-03-04T11:40:42.258Z,111.15
2018-03-04T11:43:09.805Z,112.97
2018-03-04T11:45:38.103Z,105.70
2018-03-04T11:48:05.657Z,105.85
2018-03-04T11:50:33.181Z,114.53
2018-03-04T11:53:00.726Z,105.57
2018-03-04T11:55:28.251Z,111.13
2018-03-04T11:57:55.801Z,98.63
2018-03-04T12:00:23.330Z,112.20
2018-03-04T12:02:50.873Z,117.53
2018-03-04T12:05:18.398Z,100.13
2018-03-04T12:07:45.934Z,99.63
2018-03-04T12:10:13.465Z,106.27
2018-03-04T12:12:41.005Z,94.77
2018-03-04T12:15:08.530Z,102.83
2018-03-04T12:17:36.109Z,109.73
2018-03-04T12:20:03.650Z,94.43
2018-03-04T12:22:31.186Z,106.20
2018-03-04T12:24:58.726Z,107.93
2018-03-04T12:27:26.249Z,112.47
2018-03-04T12:29:53.826Z,112.13
2018-03-04T12:32:21.338Z,104.37
2018-03-04T12:34:49.650Z,113.53
2018-03-04T12:37:17.225Z,103.37
2018-03-04T12:39:44.786Z,99.50
2018-03-04T12:42:12.363Z,119.60
2018-03-04T12:44:39.913Z,102.37
2018-03-04T12:47:07.443Z,111.50
2018-03-04T12:49:35.754Z,99.30
2018-03-04T12:52:03.273Z,118.33
2018-03-04T12:54:31.585Z,101.03
2018-03-04T12:56:59.144Z,102.10
2018-03-04T12:59:26.706Z,107.03
2018-03-04T13:01:54.229Z,104.57
2018-03-04T13:04:22.543Z,105.83
2018-03-04T13:06:50.071Z,112.17
2018-03-04T13:09:17.682Z,113.00
2018-03-04T13:11:45.178Z,96.40
2018-03-04T13:14:12.724Z,103.63
2018-03-04T13:16:40.349Z,107.63
2018-03-04T13:19:07.918Z,105.83
2018-03-04T13:21:35.453Z,102.73
2018-03-04T13:24:03.045Z,115.07
2018-03-04T13:26:30.703Z,115.60
2018-03-04T13:28:58.230Z,100.53
2018-03-04T13:31:25.771Z,102.47
2018-03-04T13:33:54.062Z,106.33
2018-03-04T13:36:22.373Z,102.80
2018-03-04T13:38:49.902Z,115.50
2018-03-04T13:41:18.211Z,108.57
2018-03-04T13:43:45.740Z,107.63
2018-03-04T13:46:14.044Z,110.77
2018-03-04T13:48:41.565Z,104.70
2018-03-04T13:51:09.101Z,99.23
2018-03-04T13:53:36.633Z,113.13
2018-03-04T13:56:04.178Z,106.40
2018-03-04T13:58:31.755Z,107.53
2018-03-04T14:00:59.287Z,115.00
2018-03-04T14:03:27.603Z,119.53
2018-03-04T14:05:55.122Z,109.70
2018-03-04T14:08:23.698Z,101.83
2018-03-04T14:10:52.033Z,101.97
2018-03-04T14:13:19.579Z,113.87
2018-03-04T14:15:47.110Z,120.00
2018-03-04T14:18:15.421Z,110.90
2018-03-04T14:20:42.991Z,117.33
2018-03-04T14:23:10.534Z,106.70
2018-03-04T14:25:38.053Z,97.57
2018-03-04T14:28:05.599Z,103.17
2018-03-04T14:30:33.229Z,96.47
2018-03-04T14:33:00.774Z,103.23
2018-03-04T14:35:28.293Z,97.33
2018-03-04T14:37:55.816Z,102.27
2018-03-04T14:40:23.371Z,94.77
2018-03-04T14:42:50.929Z,95.33
2018-03-04T14:45:18.466Z,108.03
2018-03-04T14:47:46.762Z,105.47
2018-03-04T14:50:14.312Z,110.07
2018-03-04T14:52:48.468Z,103.97
2018-03-04T14:55:16.010Z,98.57
2018-03-04T14:57:43.543Z,103.73
2018-03-04T15:00:11.845Z,92.17
2018-03-04T15:02:39.374Z,100.33
2018-03-04T15:05:07.686Z,110.33
2018-03-04T15:07:35.261Z,107.80
2018-03-04T15:10:02.801Z,103.27
2018-03-04T15:12:30.402Z,88.10
2018-03-04T15:14:57.918Z,98.93
2018-03-04T15:17:25.458Z,88.20
2018-03-04T15:19:53.743Z,86.03
2018-03-04T15:22:22.057Z,92.40
2018-03-04T15:24:49.577Z,106.77
2018-03-04T15:27:17.894Z,101.73
2018-03-04T15:29:45.462Z,92.33
2018-03-04T15:32:12.989Z,111.90
2018-03-04T15:34:41.276Z,93.67
2018-03-04T15:37:08.821Z,87.90
2018-03-04T15:39:37.130Z,94.20
2018-03-04T15:42:04.698Z,101.50
2018-03-04T15:44:32.260Z,108.80
2018-03-04T15:46:59.801Z,103.07
2018-03-04T15:49:27.330Z,106.30
2018-03-04T15:51:54.938Z,90.30
2018-03-04T15:54:22.462Z,110.77
2018-03-04T15:56:50.877Z,92.43
2018-03-04T15:59:18.403Z,109.00
2018-03-04T16:01:46.694Z,106.93
2018-03-04T16:04:14.286Z,110.87
2018-03-04T16:06:41.810Z,103.23
2018-03-04T16:09:10.126Z,110.03
2018-03-04T16:11:37.650Z,105.73
2018-03-04T16:14:05.999Z,115.77
2018-03-04T16:16:33.506Z,110.57
2018-03-04T16:19:01.050Z,89.00
2018-03-04T16:21:29.336Z,99.83
2018-03-04T16:23:56.874Z,99.40
2018-03-04T16:26:25.304Z,105.78
2018-03-04T16:28:52.846Z,94.63
2018-03-04T16:31:20.380Z,97.88
2018-03-04T16:33:48.735Z,77.85
2018-03-04T16:36:16.232Z,75.00
2018-03-04T16:38:44.540Z,75.00
2018-03-04T16:41:12.106Z,68.12
2018-03-04T16:43:39.662Z,83.33
2018-03-04T16:46:07.234Z,73.07
2018-03-04T16:48:34.757Z,68.47
2018-03-04T16:51:02.349Z,81.28
2018-03-04T16:53:29.930Z,95.43
2018-03-04T16:55:57.486Z,88.18
2018-03-04T16:58:25.023Z,83.22
2018-03-04T17:00:52.582Z,85.35
2018-03-04T17:03:20.105Z,66.80
2018-03-04T17:05:47.650Z,76.18
2018-03-04T17:08:15.178Z,82.05
2018-03-04T17:10:42.722Z,97.20
2018-03-04T17:13:10.250Z,94.35
2018-03-04T17:15:38.566Z,83.10
2018-03-04T17:18:06.090Z,78.72
2018-03-04T17:20:34.413Z,108.78
2018-03-04T17:23:01.947Z,104.63
2018-03-04T17:25:30.267Z,81.65
2018-03-04T17:27:57.799Z,83.70
2018-03-04T17:30:25.334Z,95.97
2018-03-04T17:32:53.644Z,71.22
2018-03-04T17:35:21.170Z,71.22
2018-03-04T17:37:48.710Z,68.93
2018-03-04T17:40:16.247Z,94.32
2018-03-04T17:42:43.795Z,81.57
2018-03-04T17:45:11.363Z,79.70
2018-03-04T17:47:38.904Z,82.68
2018-03-04T17:50:06.495Z,70.68
2018-03-04T17:52:34.042Z,54.63
2018-03-04T17:55:01.573Z,79.78
2018-03-04T17:57:29.888Z,74.60
2018-03-04T17:59:57.409Z,88.95
2018-03-04T18:02:25.739Z,68.80
2018-03-04T18:04:53.290Z,78.10
2018-03-04T18:07:20.835Z,81.65
2018-03-04T18:09:48.515Z,88.45
2018-03-04T18:12:16.061Z,84.65
2018-03-04T18:14:43.645Z,84.43
2018-03-04T18:17:11.377Z,98.20
2018-03-04T18:19:38.904Z,93.60
2018-03-04T18:22:06.465Z,94.37
2018-03-04T18:24:33.995Z,91.37
2018-03-04T18:27:01.526Z,94.68
2018-03-04T18:29:29.156Z,84.93
2018-03-04T18:31:56.664Z,96.35
2018-03-04T18:34:24.230Z,83.80
2018-03-04T18:36:51.762Z,108.07
2018-03-04T18:39:19.309Z,83.57
2018-03-04T18:41:47.610Z,85.10
2018-03-04T18:44:15.191Z,94.78
2018-03-04T18:46:43.717Z,84.97
2018-03-04T18:49:12.030Z,102.57
2018-03-04T18:51:41.931Z,102.70
2018-03-04T18:54:10.243Z,101.25
2018-03-04T18:56:37.761Z,81.78
2018-03-04T18:59:05.304Z,116.62
2018-03-04T19:01:32.831Z,107.37
2018-03-04T19:04:00.374Z,87.82
2018-03-04T19:06:27.893Z,87.10
2018-03-04T19:08:55.522Z,78.25
2018-03-04T19:11:23.043Z,64.15
2018-03-04T19:13:51.350Z,87.85
2018-03-04T19:16:18.871Z,86.00
2018-03-04T19:18:46.401Z,102.50
2018-03-04T19:21:13.942Z,83.12
2018-03-04T19:23:41.466Z,80.28
2018-03-04T19:26:09.009Z,97.65
2018-03-04T19:28:36.528Z,97.50
2018-03-04T19:31:04.074Z,79.03
2018-03-04T19:33:32.369Z,86.85
2018-03-04T19:35:59.914Z,64.80
2018-03-04T19:38:28.213Z,60.35
2018-03-04T19:40:55.783Z,56.70
2018-03-04T19:43:23.347Z,67.70
2018-03-04T19:45:50.892Z,66.78
2018-03-04T19:48:18.466Z,79.32
2018-03-04T19:50:46.014Z,80.95
2018-03-04T19:53:13.546Z,78.95
2018-03-04T19:55:41.144Z,67.55
2018-03-04T19:58:08.621Z,62.13
2018-03-04T20:00:36.187Z,66.00
2018-03-04T20:03:03.713Z,66.18
2018-03-04T20:05:31.260Z,81.00
2018-03-04T20:07:59.550Z,63.15
2018-03-04T20:10:27.859Z,65.22
2018-03-04T20:12:55.433Z,114.68
2018-03-04T20:15:22.976Z,85.72
2018-03-04T20:17:50.520Z,83.18
2018-03-04T20:20:18.807Z,78.75
2018-03-04T20:22:46.390Z,92.82
2018-03-04T20:25:13.914Z,81.90
2018-03-04T20:27:42.228Z,60.28
2018-03-04T20:30:09.761Z,74.72
2018-03-04T20:32:38.074Z,72.47
2018-03-04T20:35:05.609Z,61.30
2018-03-04T20:37:33.914Z,66.65
2018-03-04T20:40:01.498Z,64.85
2018-03-04T20:42:29.097Z,64.80
2018-03-04T20:44:56.597Z,73.30
2018-03-04T20:47:24.154Z,76.40
2018-03-04T20:49:52.436Z,87.95
2018-03-04T20:52:20.752Z,81.55
2018-03-04T20:54:48.269Z,93.10
2018-03-04T20:57:16.578Z,75.80
2018-03-04T20:59:44.149Z,70.55
2018-03-04T21:02:11.693Z,100.68
2018-03-04T21:04:39.270Z,63.38
2018-03-04T21:07:06.813Z,67.90
2018-03-04T21:09:34.407Z,78.40
2018-03-04T21:12:01.954Z,80.70
2018-03-04T21:14:29.526Z,69.47
2018-03-04T21:16:57.089Z,81.32
2018-03-04T21:19:24.618Z,79.45
2018-03-04T21:21:52.942Z,76.18
2018-03-04T21:24:20.474Z,96.03
2018-03-04T21:26:48.002Z,66.80
2018-03-04T21:29:16.330Z,94.60
2018-03-04T21:31:43.857Z,96.37
2018-03-04T21:34:12.161Z,98.07
2018-03-04T21:36:39.683Z,96.72
2018-03-04T21:39:07.261Z,106.63
2018-03-04T21:41:35.575Z,105.82
2018-03-04T21:44:03.137Z,99.25
2018-03-04T21:46:30.695Z,94.03
2018-03-04T21:48:58.247Z,101.28
2018-03-04T21:51:25.776Z,95.32
2018-03-04T21:53:54.087Z,88.68
2018-03-04T21:56:21.611Z,80.62
2018-03-04T21:58:49.928Z,74.15
2018-03-04T22:01:17.447Z,96.82
2018-03-04T22:03:44.989Z,92.05
2018-03-04T22:06:12.514Z,94.25
2018-03-04T22:08:40.059Z,98.62
2018-03-04T22:11:07.581Z,80.65
2018-03-04T22:13:35.121Z,84.45
2018-03-04T22:16:02.642Z,77.45
2018-03-04T22:18:30.192Z,85.18
2018-03-04T22:20:58.494Z,76.40
2018-03-04T22:23:26.038Z,77.43
2018-03-04T22:25:53.616Z,80.72
2018-03-04T22:28:21.177Z,80.75
2018-03-04T22:30:48.706Z,59.60
2018-03-04T22:33:17.119Z,68.10
2018-03-04T22:35:44.643Z,63.87
2018-03-04T22:38:13.059Z,56.25
2018-03-04T22:40:40.578Z,56.15
2018-03-04T22:43:08.866Z,58.55
2018-03-04T22:45:37.249Z,52.13
2018-03-04T22:48:05.537Z,55.60
2018-03-04T22:50:33.081Z,66.22
2018-03-04T22:53:01.398Z,65.15
2018-03-04T22:55:28.942Z,68.95
2018-03-04T22:57:56.462Z,75.50
2018-03-04T23:00:24.085Z,69.87
2018-03-04T23:02:51.610Z,62.22
2018-03-04T23:05:19.168Z,68.15
2018-03-04T23:07:47.453Z,66.07
2018-03-04T23:10:15.034Z,61.97
2018-03-04T23:12:43.302Z,63.78
2018-03-04T23:15:10.842Z,53.03
2018-03-04T23:17:39.129Z,58.15
2018-03-04T23:20:06.722Z,62.13
2018-03-04T23:22:34.245Z,58.78
2018-03-04T23:25:02.554Z,55.67
2018-03-04T23:27:30.108Z,48.85
2018-03-04T23:29:57.636Z,41.25
2018-03-04T23:32:25.180Z,40.72
2018-03-04T23:34:52.706Z,41.60
2018-03-04T23:37:20.252Z,37.65
2018-03-04T23:39:47.821Z,47.20
2018-03-04T23:42:15.359Z,61.58
2018-03-04T23:44:43.647Z,55.97
2018-03-04T23:47:11.189Z,48.50
2018-03-04T23:49:55.214Z,48.13
2018-03-04T23:52:22.769Z,54.25
2018-03-04T23:54:50.397Z,78.62
2018-03-04T23:57:17.949Z,74.70
2018-03-04T23:59:45.519Z,93.53
